createdAt,value
2018-03-26T00:00:27.363Z,85
2018-03-26T00:01:28.075Z,84
2018-03-26T00:02:28.786Z,85
2018-03-26T00:03:29.497Z,85
2018-03-26T00:04:30.210Z,84
2018-03-26T00:05:30.922Z,85
2018-03-26T00:06:31.632Z,84
2018-03-26T00:07:32.354Z,84
2018-03-26T00:08:33.067Z,85
2018-03-26T00:09:33.780Z,85
2018-03-26T00:10:34.492Z,85
2018-03-26T00:11:35.205Z,85
2018-03-26T00:12:35.916Z,85
2018-03-26T00:13:36.628Z,85
2018-03-26T00:14:37.340Z,85
2018-03-26T00:15:38.051Z,85
2018-03-26T00:16:38.762Z,85
2018-03-26T00:17:39.472Z,85
2018-03-26T00:18:40.184Z,85
2018-03-26T00:19:40.900Z,85
2018-03-26T00:20:41.609Z,85
2018-03-26T00:21:42.335Z,85
2018-03-26T00:22:43.052Z,86
2018-03-26T00:23:43.772Z,85
2018-03-26T00:24:44.498Z,85
2018-03-26T00:25:45.210Z,85
2018-03-26T00:26:45.919Z,86
2018-03-26T00:27:46.647Z,85
2018-03-26T00:28:47.357Z,85
2018-03-26T00:29:48.092Z,85
2018-03-26T00:30:48.794Z,85
2018-03-26T00:31:49.522Z,85
2018-03-26T00:32:50.246Z,85
2018-03-26T00:33:50.959Z,85
2018-03-26T00:34:51.707Z,85
2018-03-26T00:35:52.408Z,85
2018-03-26T00:36:53.120Z,86
2018-03-26T00:37:53.843Z,85
2018-03-26T00:38:54.557Z,86
2018-03-26T00:39:55.268Z,85
2018-03-26T00:40:55.981Z,85
2018-03-26T00:41:56.708Z,86
2018-03-26T00:42:57.422Z,86
2018-03-26T00:43:58.131Z,86
2018-03-26T00:44:58.841Z,86
2018-03-26T00:45:59.565Z,86
2018-03-26T00:47:00.278Z,86
2018-03-26T00:48:00.988Z,86
2018-03-26T00:49:01.702Z,85
2018-03-26T00:50:02.414Z,85
2018-03-26T00:51:03.125Z,86
2018-03-26T00:52:03.849Z,86
2018-03-26T00:53:04.561Z,86
2018-03-26T00:54:05.271Z,86
2018-03-26T00:55:05.982Z,86
2018-03-26T00:56:06.693Z,86
2018-03-26T00:57:07.404Z,86
2018-03-26T00:58:08.118Z,86
2018-03-26T00:59:08.830Z,86
2018-03-26T01:00:09.556Z,86
2018-03-26T01:01:10.281Z,86
2018-03-26T01:02:11.005Z,86
2018-03-26T01:03:11.731Z,86
2018-03-26T01:04:12.444Z,86
2018-03-26T01:05:13.157Z,86
2018-03-26T01:06:13.868Z,86
2018-03-26T01:07:14.578Z,86
2018-03-26T01:08:15.291Z,86
2018-03-26T01:09:16.001Z,86
2018-03-26T01:10:16.712Z,86
2018-03-26T01:11:17.422Z,86
2018-03-26T01:12:18.148Z,86
2018-03-26T01:13:18.860Z,86
2018-03-26T01:14:19.592Z,86
2018-03-26T01:15:20.298Z,86
2018-03-26T01:16:21.008Z,86
2018-03-26T01:17:21.719Z,86
2018-03-26T01:18:22.430Z,86
2018-03-26T01:19:23.141Z,86
2018-03-26T01:20:23.850Z,86
2018-03-26T01:21:24.585Z,86
2018-03-26T01:22:25.288Z,86
2018-03-26T01:23:26.000Z,86
2018-03-26T01:24:26.714Z,86
2018-03-26T01:25:27.427Z,86
2018-03-26T01:26:28.139Z,86
2018-03-26T01:27:28.862Z,86
2018-03-26T01:28:29.573Z,86
2018-03-26T01:29:30.299Z,86
2018-03-26T01:30:31.011Z,86
2018-03-26T01:31:31.729Z,86
2018-03-26T01:32:32.436Z,86
2018-03-26T01:33:33.147Z,86
2018-03-26T01:34:33.859Z,87
2018-03-26T01:35:34.570Z,87
2018-03-26T01:36:35.280Z,86
2018-03-26T01:37:35.992Z,86
2018-03-26T01:38:36.703Z,86
2018-03-26T01:39:37.413Z,87
2018-03-26T01:40:38.125Z,86
2018-03-26T01:41:38.836Z,87
2018-03-26T01:42:39.548Z,87
2018-03-26T01:43:40.261Z,87
2018-03-26T01:44:40.986Z,86
2018-03-26T01:45:41.697Z,87
2018-03-26T01:46:42.410Z,87
2018-03-26T01:47:43.122Z,87
2018-03-26T01:48:43.835Z,87
2018-03-26T01:49:44.559Z,87
2018-03-26T01:50:45.271Z,87
2018-03-26T01:51:45.982Z,87
2018-03-26T01:52:46.692Z,87
2018-03-26T01:53:47.402Z,87
2018-03-26T01:54:48.112Z,87
2018-03-26T01:55:48.823Z,87
2018-03-26T01:56:49.533Z,87
2018-03-26T01:57:50.258Z,86
2018-03-26T01:58:50.984Z,87
2018-03-26T01:59:51.696Z,87
2018-03-26T02:00:52.406Z,87
2018-03-26T02:01:53.131Z,87
2018-03-26T02:02:53.842Z,87
2018-03-26T02:03:54.555Z,87
2018-03-26T02:04:55.266Z,87
2018-03-26T02:05:55.991Z,87
2018-03-26T02:06:56.702Z,87
2018-03-26T02:07:57.427Z,87
2018-03-26T02:08:58.138Z,87
2018-03-26T02:09:58.851Z,87
2018-03-26T02:10:59.564Z,87
2018-03-26T02:12:00.277Z,87
2018-03-26T02:13:00.986Z,87
2018-03-26T02:14:01.695Z,87
2018-03-26T02:15:02.420Z,87
2018-03-26T02:16:03.145Z,87
2018-03-26T02:17:03.874Z,87
2018-03-26T02:18:04.581Z,87
2018-03-26T02:19:05.291Z,87
2018-03-26T02:20:06.004Z,87
2018-03-26T02:21:06.715Z,87
2018-03-26T02:22:07.428Z,87
2018-03-26T02:23:08.139Z,87
2018-03-26T02:24:08.849Z,87
2018-03-26T02:25:09.560Z,87
2018-03-26T02:26:10.269Z,87
2018-03-26T02:27:10.982Z,87
2018-03-26T02:28:11.693Z,87
2018-03-26T02:29:12.403Z,87
2018-03-26T02:30:13.119Z,87
2018-03-26T02:31:13.842Z,87
2018-03-26T02:32:14.560Z,87
2018-03-26T02:33:15.273Z,87
2018-03-26T02:34:15.984Z,87
2018-03-26T02:35:16.703Z,87
2018-03-26T02:36:17.404Z,87
2018-03-26T02:37:18.114Z,87
2018-03-26T02:38:18.828Z,87
2018-03-26T02:39:19.534Z,87
2018-03-26T02:40:20.253Z,87
2018-03-26T02:41:20.952Z,87
2018-03-26T02:42:21.679Z,87
2018-03-26T02:43:22.389Z,87
2018-03-26T02:44:23.098Z,87
2018-03-26T02:45:23.807Z,87
2018-03-26T02:46:24.518Z,87
2018-03-26T02:47:25.228Z,87
2018-03-26T02:48:25.937Z,87
2018-03-26T02:49:26.650Z,87
2018-03-26T02:50:27.360Z,87
2018-03-26T02:51:28.071Z,87
2018-03-26T02:52:28.783Z,87
2018-03-26T02:53:29.494Z,87
2018-03-26T02:54:30.205Z,87
2018-03-26T02:55:30.916Z,87
2018-03-26T02:56:31.641Z,87
2018-03-26T02:57:32.354Z,87
2018-03-26T02:58:33.065Z,87
2018-03-26T02:59:33.778Z,87
2018-03-26T03:00:34.486Z,87
2018-03-26T03:01:35.200Z,87
2018-03-26T03:02:35.906Z,87
2018-03-26T03:03:36.618Z,87
2018-03-26T03:04:37.326Z,87
2018-03-26T03:05:38.050Z,87
2018-03-26T03:06:38.762Z,87
2018-03-26T03:07:39.471Z,87
2018-03-26T03:08:40.197Z,87
2018-03-26T03:09:40.907Z,87
2018-03-26T03:10:41.617Z,87
2018-03-26T03:11:42.326Z,87
2018-03-26T03:12:43.037Z,87
2018-03-26T03:13:43.747Z,87
2018-03-26T03:14:44.459Z,87
2018-03-26T03:15:45.171Z,87
2018-03-26T03:16:45.881Z,87
2018-03-26T03:17:46.607Z,87
2018-03-26T03:18:47.334Z,87
2018-03-26T03:19:48.043Z,87
2018-03-26T03:20:48.754Z,87
2018-03-26T03:21:49.464Z,87
2018-03-26T03:22:50.175Z,87
2018-03-26T03:23:50.886Z,87
2018-03-26T03:24:51.599Z,87
2018-03-26T03:25:52.311Z,87
2018-03-26T03:26:53.023Z,87
2018-03-26T03:27:53.730Z,87
2018-03-26T03:28:54.457Z,87
2018-03-26T03:29:55.166Z,87
2018-03-26T03:30:55.879Z,87
2018-03-26T03:31:56.603Z,87
2018-03-26T03:32:57.313Z,87
2018-03-26T03:33:58.023Z,87
2018-03-26T03:34:58.733Z,87
2018-03-26T03:35:59.444Z,87
2018-03-26T03:37:00.154Z,87
2018-03-26T03:38:00.881Z,87
2018-03-26T03:39:01.592Z,87
2018-03-26T03:40:02.316Z,87
2018-03-26T03:41:03.027Z,87
2018-03-26T03:42:03.736Z,87
2018-03-26T03:43:04.447Z,87
2018-03-26T03:44:05.157Z,87
2018-03-26T03:45:05.884Z,87
2018-03-26T03:46:06.595Z,87
2018-03-26T03:47:07.304Z,87
2018-03-26T03:48:08.021Z,87
2018-03-26T03:49:08.727Z,87
2018-03-26T03:50:09.437Z,87
2018-03-26T03:51:10.159Z,87
2018-03-26T03:52:10.869Z,87
2018-03-26T03:53:11.593Z,87
2018-03-26T03:54:12.305Z,87
2018-03-26T03:55:13.026Z,86
2018-03-26T03:56:13.735Z,86
2018-03-26T03:57:14.447Z,86
2018-03-26T03:58:15.156Z,86
2018-03-26T03:59:15.879Z,87
2018-03-26T04:00:16.587Z,87
2018-03-26T04:01:17.299Z,86
2018-03-26T04:02:18.007Z,86
2018-03-26T04:03:18.729Z,86
2018-03-26T04:04:19.437Z,86
2018-03-26T04:05:20.147Z,87
2018-03-26T04:06:20.858Z,86
2018-03-26T04:07:21.816Z,86
2018-03-26T04:08:22.528Z,86
2018-03-26T04:09:23.237Z,86
2018-03-26T04:10:23.945Z,86
2018-03-26T04:11:24.655Z,86
2018-03-26T04:12:25.616Z,86
2018-03-26T04:13:26.327Z,87
2018-03-26T04:14:27.037Z,86
2018-03-26T04:15:27.746Z,86
2018-03-26T04:16:28.462Z,86
2018-03-26T04:17:29.166Z,86
2018-03-26T04:18:29.874Z,86
2018-03-26T04:19:30.584Z,86
2018-03-26T04:20:31.292Z,86
2018-03-26T04:21:32.036Z,86
2018-03-26T04:22:32.711Z,86
2018-03-26T04:23:33.432Z,86
2018-03-26T04:24:34.142Z,86
2018-03-26T04:25:34.854Z,86
2018-03-26T04:26:35.577Z,86
2018-03-26T04:27:36.290Z,86
2018-03-26T04:28:37.001Z,86
2018-03-26T04:29:37.713Z,86
2018-03-26T04:30:38.433Z,86
2018-03-26T04:31:39.157Z,86
2018-03-26T04:32:39.865Z,86
2018-03-26T04:33:40.576Z,86
2018-03-26T04:34:41.285Z,86
2018-03-26T04:35:42.008Z,86
2018-03-26T04:36:42.729Z,86
2018-03-26T04:37:43.441Z,86
2018-03-26T04:38:44.152Z,86
2018-03-26T04:39:44.861Z,86
2018-03-26T04:40:45.571Z,86
2018-03-26T04:41:46.280Z,86
2018-03-26T04:42:47.004Z,86
2018-03-26T04:43:47.730Z,86
2018-03-26T04:44:48.449Z,86
2018-03-26T04:45:49.157Z,86
2018-03-26T04:46:49.867Z,86
2018-03-26T04:47:50.574Z,86
2018-03-26T04:48:51.284Z,87
2018-03-26T04:49:51.994Z,87
2018-03-26T04:50:52.701Z,87
2018-03-26T04:51:53.425Z,86
2018-03-26T04:52:54.136Z,87
2018-03-26T04:53:54.846Z,86
2018-03-26T04:54:55.554Z,87
2018-03-26T04:55:56.278Z,86
2018-03-26T04:56:56.989Z,86
2018-03-26T04:57:57.699Z,87
2018-03-26T04:58:58.411Z,87
2018-03-26T04:59:59.122Z,87
2018-03-26T05:00:59.831Z,87
2018-03-26T05:02:00.541Z,86
2018-03-26T05:03:01.252Z,87
2018-03-26T05:04:01.963Z,87
2018-03-26T05:05:02.679Z,87
2018-03-26T05:06:03.381Z,87
2018-03-26T05:07:04.090Z,87
2018-03-26T05:08:04.802Z,87
2018-03-26T05:09:05.530Z,87
2018-03-26T05:10:06.236Z,87
2018-03-26T05:11:06.946Z,87
2018-03-26T05:12:07.657Z,87
2018-03-26T05:13:08.364Z,87
2018-03-26T05:14:09.076Z,87
2018-03-26T05:15:09.785Z,87
2018-03-26T05:16:10.494Z,87
2018-03-26T05:17:11.205Z,87
2018-03-26T05:18:11.917Z,87
2018-03-26T05:19:12.629Z,87
2018-03-26T05:20:13.339Z,88
2018-03-26T05:21:14.049Z,87
2018-03-26T05:22:14.761Z,87
2018-03-26T05:23:15.470Z,87
2018-03-26T05:24:16.181Z,88
2018-03-26T05:25:16.892Z,87
2018-03-26T05:26:17.603Z,88
2018-03-26T05:27:18.312Z,88
2018-03-26T05:28:19.023Z,87
2018-03-26T05:29:19.737Z,88
2018-03-26T05:30:20.452Z,88
2018-03-26T05:31:21.166Z,88
2018-03-26T05:32:21.876Z,88
2018-03-26T05:33:22.587Z,88
2018-03-26T05:34:23.300Z,88
2018-03-26T05:35:24.021Z,88
2018-03-26T05:36:24.748Z,88
2018-03-26T05:37:25.460Z,88
2018-03-26T05:38:26.173Z,88
2018-03-26T05:39:26.883Z,88
2018-03-26T05:40:27.598Z,88
2018-03-26T05:41:28.307Z,88
2018-03-26T05:42:29.018Z,88
2018-03-26T05:43:29.742Z,88
2018-03-26T05:44:30.455Z,88
2018-03-26T05:45:31.174Z,88
2018-03-26T05:46:31.893Z,88
2018-03-26T05:47:32.605Z,88
2018-03-26T05:48:33.318Z,88
2018-03-26T05:49:34.030Z,88
2018-03-26T05:50:34.742Z,88
2018-03-26T05:51:35.455Z,89
2018-03-26T05:52:36.167Z,89
2018-03-26T05:53:36.892Z,89
2018-03-26T05:54:37.606Z,89
2018-03-26T05:55:38.319Z,89
2018-03-26T05:56:39.030Z,89
2018-03-26T05:57:39.742Z,89
2018-03-26T05:58:40.453Z,89
2018-03-26T05:59:41.177Z,88
2018-03-26T06:00:41.893Z,88
2018-03-26T06:01:42.600Z,88
2018-03-26T06:02:43.313Z,89
2018-03-26T06:03:44.025Z,89
2018-03-26T06:04:44.738Z,89
2018-03-26T06:05:45.452Z,89
2018-03-26T06:06:46.166Z,89
2018-03-26T06:07:46.879Z,89
2018-03-26T06:08:47.606Z,89
2018-03-26T06:09:48.318Z,89
2018-03-26T06:10:49.041Z,88
2018-03-26T06:11:49.754Z,88
2018-03-26T06:12:50.470Z,88
2018-03-26T06:13:51.183Z,89
2018-03-26T06:14:51.897Z,89
2018-03-26T06:15:52.623Z,88
2018-03-26T06:16:53.336Z,89
2018-03-26T06:17:54.048Z,89
2018-03-26T06:18:54.762Z,88
2018-03-26T06:19:55.477Z,89
2018-03-26T06:20:56.201Z,88
2018-03-26T06:21:56.914Z,88
2018-03-26T06:22:57.646Z,88
2018-03-26T06:23:58.353Z,88
2018-03-26T06:24:59.067Z,88
2018-03-26T06:25:59.782Z,88
2018-03-26T06:27:00.494Z,88
2018-03-26T06:28:01.209Z,88
2018-03-26T06:29:01.920Z,88
2018-03-26T06:30:02.636Z,88
2018-03-26T06:31:03.349Z,88
2018-03-26T06:32:04.076Z,88
2018-03-26T06:33:04.792Z,88
2018-03-26T06:34:05.509Z,88
2018-03-26T06:35:06.236Z,88
2018-03-26T06:36:06.951Z,88
2018-03-26T06:37:07.667Z,88
2018-03-26T06:38:08.382Z,88
2018-03-26T06:39:09.096Z,88
2018-03-26T06:40:09.823Z,88
2018-03-26T06:41:10.537Z,88
2018-03-26T06:42:11.266Z,88
2018-03-26T06:43:11.981Z,89
2018-03-26T06:44:12.733Z,88
2018-03-26T06:45:13.427Z,89
2018-03-26T06:46:14.140Z,89
2018-03-26T06:47:14.941Z,89
2018-03-26T06:48:15.570Z,89
2018-03-26T06:49:16.286Z,89
2018-03-26T06:50:17.001Z,90
2018-03-26T06:51:17.717Z,89
2018-03-26T06:52:18.445Z,90
2018-03-26T06:53:19.160Z,89
2018-03-26T06:54:19.875Z,89
2018-03-26T06:55:20.605Z,89
2018-03-26T06:56:21.320Z,89
2018-03-26T06:57:22.036Z,89
2018-03-26T06:58:22.751Z,89
2018-03-26T06:59:23.467Z,89
2018-03-26T07:00:24.187Z,89
2018-03-26T07:01:24.898Z,89
2018-03-26T07:02:25.614Z,89
2018-03-26T07:03:26.341Z,89
2018-03-26T07:04:27.048Z,89
2018-03-26T07:05:27.762Z,88
2018-03-26T07:06:28.488Z,89
2018-03-26T07:07:29.219Z,89
2018-03-26T07:08:29.934Z,89
2018-03-26T07:09:30.650Z,89
2018-03-26T07:10:31.365Z,89
2018-03-26T07:11:32.097Z,89
2018-03-26T07:12:32.825Z,89
2018-03-26T07:13:33.531Z,89
2018-03-26T07:14:34.248Z,89
2018-03-26T07:15:34.971Z,89
2018-03-26T07:16:35.699Z,88
2018-03-26T07:17:36.416Z,89
2018-03-26T07:18:37.134Z,89
2018-03-26T07:19:37.853Z,88
2018-03-26T07:20:38.571Z,87
2018-03-26T07:21:39.349Z,87
2018-03-26T07:22:40.012Z,86
2018-03-26T07:23:40.733Z,85
2018-03-26T07:24:41.452Z,84
2018-03-26T07:25:42.174Z,84
2018-03-26T07:26:42.906Z,83
2018-03-26T07:27:43.627Z,84
2018-03-26T07:28:44.351Z,83
2018-03-26T07:29:45.086Z,83
2018-03-26T07:30:45.805Z,82
2018-03-26T07:31:46.531Z,82
2018-03-26T07:32:47.255Z,81
2018-03-26T07:33:47.978Z,81
2018-03-26T07:34:48.702Z,80
2018-03-26T07:35:49.428Z,80
2018-03-26T07:36:50.163Z,80
2018-03-26T07:37:50.894Z,79
2018-03-26T07:38:51.617Z,80
2018-03-26T07:39:52.344Z,79
2018-03-26T07:40:53.066Z,79
2018-03-26T07:41:53.800Z,78
2018-03-26T07:42:54.525Z,78
2018-03-26T07:43:55.255Z,77
2018-03-26T07:44:55.977Z,76
2018-03-26T07:45:56.702Z,77
2018-03-26T07:46:57.427Z,77
2018-03-26T07:47:58.151Z,76
2018-03-26T07:48:58.893Z,75
2018-03-26T07:49:59.618Z,75
2018-03-26T07:51:00.343Z,75
2018-03-26T07:52:01.083Z,74
2018-03-26T07:53:01.810Z,73
2018-03-26T07:54:02.536Z,74
2018-03-26T07:55:03.264Z,73
2018-03-26T07:56:04.003Z,71
2018-03-26T07:57:04.730Z,70
2018-03-26T07:58:05.456Z,71
2018-03-26T07:59:06.216Z,69
2018-03-26T08:00:06.926Z,69
2018-03-26T08:01:07.656Z,70
2018-03-26T08:02:08.382Z,70
2018-03-26T08:03:09.104Z,69
2018-03-26T08:04:09.836Z,67
2018-03-26T08:05:10.561Z,67
2018-03-26T08:06:11.291Z,67
2018-03-26T08:07:12.018Z,65
2018-03-26T08:08:12.747Z,65
2018-03-26T08:09:13.474Z,66
2018-03-26T08:10:14.203Z,65
2018-03-26T08:11:14.933Z,65
2018-03-26T08:12:15.665Z,65
2018-03-26T08:13:16.392Z,65
2018-03-26T08:14:17.120Z,65
2018-03-26T08:15:17.863Z,64
2018-03-26T08:16:18.591Z,65
2018-03-26T08:17:19.374Z,63
2018-03-26T08:18:20.052Z,63
2018-03-26T08:19:20.781Z,62
2018-03-26T08:20:21.512Z,62
2018-03-26T08:21:22.255Z,63
2018-03-26T08:22:22.988Z,61
2018-03-26T08:23:23.719Z,62
2018-03-26T08:24:24.453Z,62
2018-03-26T08:25:25.184Z,62
2018-03-26T08:26:25.917Z,62
2018-03-26T08:27:26.652Z,61
2018-03-26T08:28:27.388Z,62
2018-03-26T08:29:28.119Z,62
2018-03-26T08:30:28.853Z,63
2018-03-26T08:31:29.582Z,64
2018-03-26T08:32:30.312Z,65
2018-03-26T08:33:31.044Z,66
2018-03-26T08:34:31.772Z,66
2018-03-26T08:35:32.503Z,65
2018-03-26T08:36:33.234Z,66
2018-03-26T08:37:33.964Z,66
2018-03-26T08:38:34.694Z,65
2018-03-26T08:39:35.422Z,65
2018-03-26T08:40:36.153Z,64
2018-03-26T08:41:36.901Z,63
2018-03-26T08:42:37.630Z,62
2018-03-26T08:43:38.371Z,63
2018-03-26T08:44:39.132Z,61
2018-03-26T08:45:39.833Z,62
2018-03-26T08:46:40.564Z,62
2018-03-26T08:47:41.293Z,63
2018-03-26T08:48:42.023Z,64
2018-03-26T08:49:42.830Z,64
2018-03-26T08:50:43.490Z,64
2018-03-26T08:51:44.236Z,65
2018-03-26T08:52:44.959Z,66
2018-03-26T08:53:45.702Z,66
2018-03-26T08:54:46.432Z,67
2018-03-26T08:55:47.161Z,65
2018-03-26T08:56:47.891Z,64
2018-03-26T08:57:48.623Z,63
2018-03-26T08:58:49.360Z,60
2018-03-26T08:59:50.098Z,59
2018-03-26T09:00:50.835Z,59
2018-03-26T09:01:51.582Z,58
2018-03-26T09:02:52.317Z,57
2018-03-26T09:03:53.054Z,55
2018-03-26T09:04:53.790Z,54
2018-03-26T09:05:54.527Z,53
2018-03-26T09:06:55.276Z,53
2018-03-26T09:07:56.015Z,54
2018-03-26T09:08:56.764Z,54
2018-03-26T09:09:57.509Z,52
2018-03-26T09:10:58.237Z,52
2018-03-26T09:11:59.021Z,53
2018-03-26T09:12:59.727Z,53
2018-03-26T09:14:00.462Z,53
2018-03-26T09:15:01.197Z,52
2018-03-26T09:16:01.932Z,52
2018-03-26T09:17:02.679Z,49
2018-03-26T09:18:03.417Z,50
2018-03-26T09:19:04.160Z,49
2018-03-26T09:20:04.896Z,48
2018-03-26T09:21:05.633Z,48
2018-03-26T09:22:06.378Z,48
2018-03-26T09:23:07.126Z,47
2018-03-26T09:24:07.863Z,46
2018-03-26T09:25:08.598Z,46
2018-03-26T09:26:09.333Z,46
2018-03-26T09:27:10.069Z,46
2018-03-26T09:28:10.802Z,46
2018-03-26T09:29:11.541Z,46
2018-03-26T09:30:12.274Z,46
2018-03-26T09:31:13.011Z,45
2018-03-26T09:32:13.745Z,45
2018-03-26T09:33:14.483Z,46
2018-03-26T09:34:15.217Z,45
2018-03-26T09:35:15.952Z,46
2018-03-26T09:36:16.688Z,45
2018-03-26T09:37:17.424Z,45
2018-03-26T09:38:18.173Z,44
2018-03-26T09:39:18.908Z,44
2018-03-26T09:40:19.646Z,44
2018-03-26T09:41:20.381Z,44
2018-03-26T09:42:21.118Z,43
2018-03-26T09:43:21.855Z,44
2018-03-26T09:44:22.603Z,43
2018-03-26T09:45:23.385Z,44
2018-03-26T09:46:24.075Z,45
2018-03-26T09:47:24.813Z,43
2018-03-26T09:48:25.559Z,44
2018-03-26T09:49:26.296Z,44
2018-03-26T09:50:27.045Z,44
2018-03-26T09:51:27.781Z,44
2018-03-26T09:52:28.529Z,43
2018-03-26T09:53:29.306Z,44
2018-03-26T09:54:30.009Z,44
2018-03-26T09:55:30.759Z,43
2018-03-26T09:56:31.506Z,43
2018-03-26T09:57:32.245Z,43
2018-03-26T09:58:32.981Z,43
2018-03-26T09:59:33.716Z,42
2018-03-26T10:00:34.451Z,42
2018-03-26T10:01:35.200Z,42
2018-03-26T10:02:35.949Z,41
2018-03-26T10:03:36.683Z,42
2018-03-26T10:04:37.420Z,42
2018-03-26T10:05:38.157Z,43
2018-03-26T10:06:38.901Z,44
2018-03-26T10:07:39.630Z,44
2018-03-26T10:08:40.372Z,42
2018-03-26T10:09:41.116Z,42
2018-03-26T10:10:41.853Z,42
2018-03-26T10:11:42.590Z,42
2018-03-26T10:12:43.338Z,43
2018-03-26T10:13:44.074Z,42
2018-03-26T10:14:44.823Z,41
2018-03-26T10:15:45.562Z,42
2018-03-26T10:16:46.296Z,42
2018-03-26T10:17:47.033Z,43
2018-03-26T10:18:47.781Z,43
2018-03-26T10:19:48.580Z,43
2018-03-26T10:20:49.255Z,43
2018-03-26T10:21:49.992Z,43
2018-03-26T10:22:50.730Z,43
2018-03-26T10:23:51.463Z,43
2018-03-26T10:24:52.202Z,42
2018-03-26T10:25:52.950Z,41
2018-03-26T10:26:53.690Z,41
2018-03-26T10:27:54.427Z,41
2018-03-26T10:28:55.166Z,40
2018-03-26T10:29:55.916Z,41
2018-03-26T10:30:56.663Z,41
2018-03-26T10:31:57.400Z,42
2018-03-26T10:32:58.135Z,43
2018-03-26T10:33:58.870Z,42
2018-03-26T10:34:59.607Z,42
2018-03-26T10:36:00.343Z,43
2018-03-26T10:37:01.078Z,44
2018-03-26T10:38:01.815Z,44
2018-03-26T10:39:02.549Z,44
2018-03-26T10:40:03.287Z,42
2018-03-26T10:41:04.023Z,42
2018-03-26T10:42:04.759Z,42
2018-03-26T10:43:05.498Z,42
2018-03-26T10:44:06.228Z,42
2018-03-26T10:45:06.963Z,42
2018-03-26T10:46:07.713Z,42
2018-03-26T10:47:08.450Z,42
2018-03-26T10:48:09.183Z,42
2018-03-26T10:49:09.921Z,42
2018-03-26T10:50:10.657Z,42
2018-03-26T10:51:11.393Z,42
2018-03-26T10:52:12.128Z,42
2018-03-26T10:53:12.864Z,42
2018-03-26T10:54:13.601Z,42
2018-03-26T10:55:14.348Z,42
2018-03-26T10:56:15.094Z,42
2018-03-26T10:57:15.832Z,41
2018-03-26T10:58:16.567Z,42
2018-03-26T10:59:17.304Z,43
2018-03-26T11:00:18.058Z,44
2018-03-26T11:01:18.797Z,43
2018-03-26T11:02:19.532Z,44
2018-03-26T11:03:20.280Z,44
2018-03-26T11:04:21.016Z,43
2018-03-26T11:05:21.753Z,43
2018-03-26T11:06:22.488Z,43
2018-03-26T11:07:23.225Z,43
2018-03-26T11:08:23.961Z,42
2018-03-26T11:09:24.697Z,42
2018-03-26T11:10:25.433Z,42
2018-03-26T11:11:26.168Z,42
2018-03-26T11:12:26.915Z,42
2018-03-26T11:13:27.649Z,42
2018-03-26T11:14:28.383Z,42
2018-03-26T11:15:29.121Z,43
2018-03-26T11:16:29.855Z,43
2018-03-26T11:17:30.591Z,41
2018-03-26T11:18:31.330Z,41
2018-03-26T11:19:32.065Z,40
2018-03-26T11:20:32.821Z,40
2018-03-26T11:21:33.536Z,40
2018-03-26T11:22:34.284Z,40
2018-03-26T11:23:35.040Z,40
2018-03-26T11:24:35.771Z,39
2018-03-26T11:25:36.518Z,39
2018-03-26T11:26:37.256Z,38
2018-03-26T11:27:37.992Z,38
2018-03-26T11:28:38.738Z,38
2018-03-26T11:29:39.490Z,38
2018-03-26T11:30:40.225Z,37
2018-03-26T11:31:40.962Z,37
2018-03-26T11:32:41.700Z,38
2018-03-26T11:33:42.452Z,37
2018-03-26T11:34:43.197Z,37
2018-03-26T11:35:43.933Z,37
2018-03-26T11:36:44.680Z,38
2018-03-26T11:37:45.429Z,38
2018-03-26T11:38:46.183Z,37
2018-03-26T11:39:46.916Z,37
2018-03-26T11:40:47.651Z,37
2018-03-26T11:41:48.391Z,38
2018-03-26T11:42:49.132Z,39
2018-03-26T11:43:49.882Z,39
2018-03-26T11:44:50.619Z,39
2018-03-26T11:45:51.354Z,40
2018-03-26T11:46:52.105Z,39
2018-03-26T11:47:52.840Z,39
2018-03-26T11:48:53.578Z,38
2018-03-26T11:49:54.314Z,38
2018-03-26T11:50:55.059Z,38
2018-03-26T11:51:55.798Z,38
2018-03-26T11:52:56.537Z,37
2018-03-26T11:53:57.273Z,37
2018-03-26T11:54:58.009Z,37
2018-03-26T11:55:58.749Z,37
2018-03-26T11:56:59.478Z,37
2018-03-26T11:58:00.219Z,38
2018-03-26T11:59:00.956Z,37
2018-03-26T12:00:01.696Z,36
2018-03-26T12:01:02.436Z,37
2018-03-26T12:02:03.188Z,35
2018-03-26T12:03:03.927Z,37
2018-03-26T12:04:04.664Z,37
2018-03-26T12:05:05.413Z,37
2018-03-26T12:06:06.159Z,39
2018-03-26T12:07:06.902Z,38
2018-03-26T12:08:07.649Z,39
2018-03-26T12:09:08.381Z,40
2018-03-26T12:10:09.117Z,40
2018-03-26T12:11:09.850Z,41
2018-03-26T12:12:10.583Z,40
2018-03-26T12:13:11.320Z,40
2018-03-26T12:14:12.053Z,41
2018-03-26T12:15:12.790Z,40
2018-03-26T12:16:13.522Z,39
2018-03-26T12:17:14.270Z,39
2018-03-26T12:18:15.004Z,39
2018-03-26T12:19:15.740Z,38
2018-03-26T12:20:16.479Z,37
2018-03-26T12:21:17.222Z,38
2018-03-26T12:22:17.957Z,37
2018-03-26T12:23:18.693Z,36
2018-03-26T12:24:19.428Z,36
2018-03-26T12:25:20.193Z,35
2018-03-26T12:26:20.900Z,35
2018-03-26T12:27:21.637Z,34
2018-03-26T12:28:22.372Z,33
2018-03-26T12:29:23.109Z,33
2018-03-26T12:30:23.849Z,33
2018-03-26T12:31:24.582Z,33
2018-03-26T12:32:25.373Z,32
2018-03-26T12:33:26.083Z,33
2018-03-26T12:34:26.823Z,32
2018-03-26T12:35:27.564Z,32
2018-03-26T12:36:28.303Z,31
2018-03-26T12:37:29.045Z,32
2018-03-26T12:38:29.785Z,32
2018-03-26T12:39:30.538Z,33
2018-03-26T12:40:31.292Z,32
2018-03-26T12:41:32.036Z,32
2018-03-26T12:42:32.773Z,33
2018-03-26T12:43:33.504Z,33
2018-03-26T12:44:34.244Z,33
2018-03-26T12:45:34.981Z,34
2018-03-26T12:46:35.732Z,34
2018-03-26T12:47:36.468Z,33
2018-03-26T12:48:37.221Z,33
2018-03-26T12:49:37.956Z,32
2018-03-26T12:50:38.694Z,34
2018-03-26T12:51:39.433Z,33
2018-03-26T12:52:40.186Z,33
2018-03-26T12:53:40.922Z,36
2018-03-26T12:54:41.718Z,36
2018-03-26T12:55:42.401Z,36
2018-03-26T12:56:43.134Z,35
2018-03-26T12:57:43.873Z,36
2018-03-26T12:58:44.624Z,35
2018-03-26T12:59:45.370Z,35
2018-03-26T13:00:46.104Z,34
2018-03-26T13:01:46.843Z,34
2018-03-26T13:02:47.575Z,34
2018-03-26T13:03:48.309Z,34
2018-03-26T13:04:49.045Z,35
2018-03-26T13:05:49.780Z,35
2018-03-26T13:06:50.515Z,35
2018-03-26T13:07:51.281Z,35
2018-03-26T13:08:52.010Z,36
2018-03-26T13:09:52.752Z,36
2018-03-26T13:10:53.482Z,36
2018-03-26T13:11:54.215Z,36
2018-03-26T13:12:54.951Z,37
2018-03-26T13:13:55.685Z,36
2018-03-26T13:14:56.420Z,37
2018-03-26T13:15:57.155Z,36
2018-03-26T13:16:57.887Z,37
2018-03-26T13:17:58.618Z,38
2018-03-26T13:18:59.368Z,40
2018-03-26T13:20:00.098Z,41
2018-03-26T13:21:00.845Z,41
2018-03-26T13:22:01.578Z,41
2018-03-26T13:23:02.310Z,42
2018-03-26T13:24:03.056Z,42
2018-03-26T13:25:03.788Z,41
2018-03-26T13:26:04.521Z,41
2018-03-26T13:27:05.267Z,41
2018-03-26T13:28:06.000Z,41
2018-03-26T13:29:06.746Z,41
2018-03-26T13:30:07.478Z,40
2018-03-26T13:31:08.218Z,41
2018-03-26T13:32:08.945Z,42
2018-03-26T13:33:09.688Z,43
2018-03-26T13:34:10.436Z,43
2018-03-26T13:35:11.179Z,43
2018-03-26T13:36:11.910Z,41
2018-03-26T13:37:12.657Z,42
2018-03-26T13:38:13.387Z,40
2018-03-26T13:39:14.133Z,40
2018-03-26T13:40:14.866Z,39
2018-03-26T13:41:15.610Z,39
2018-03-26T13:42:16.344Z,40
2018-03-26T13:43:17.080Z,41
2018-03-26T13:44:17.808Z,40
2018-03-26T13:45:18.540Z,41
2018-03-26T13:46:19.272Z,42
2018-03-26T13:47:20.002Z,44
2018-03-26T13:48:20.734Z,45
2018-03-26T13:49:21.465Z,45
2018-03-26T13:50:22.196Z,45
2018-03-26T13:51:22.928Z,45
2018-03-26T13:52:23.660Z,45
2018-03-26T13:53:24.390Z,45
2018-03-26T13:54:25.147Z,45
2018-03-26T13:55:25.852Z,45
2018-03-26T13:56:26.584Z,44
2018-03-26T13:57:27.318Z,45
2018-03-26T13:58:28.051Z,44
2018-03-26T13:59:28.782Z,43
2018-03-26T14:00:29.516Z,42
2018-03-26T14:01:30.247Z,41
2018-03-26T14:02:30.994Z,41
2018-03-26T14:03:31.740Z,40
2018-03-26T14:04:32.472Z,40
2018-03-26T14:05:33.207Z,40
2018-03-26T14:06:33.939Z,39
2018-03-26T14:07:34.672Z,39
2018-03-26T14:08:35.403Z,38
2018-03-26T14:09:36.150Z,38
2018-03-26T14:10:36.895Z,38
2018-03-26T14:11:37.642Z,39
2018-03-26T14:12:38.376Z,38
2018-03-26T14:13:39.109Z,37
2018-03-26T14:14:39.841Z,37
2018-03-26T14:15:40.572Z,36
2018-03-26T14:16:41.305Z,36
2018-03-26T14:17:42.039Z,36
2018-03-26T14:18:42.772Z,37
2018-03-26T14:19:43.505Z,38
2018-03-26T14:20:44.240Z,38
2018-03-26T14:21:44.970Z,39
2018-03-26T14:22:45.703Z,39
2018-03-26T14:23:46.437Z,39
2018-03-26T14:24:47.170Z,40
2018-03-26T14:25:47.916Z,40